createdAt,value
2019-03-05T00:04:18.425Z,6.68
2019-03-05T00:09:21.683Z,6.66
2019-03-05T00:14:23.272Z,6.67
2019-03-05T00:19:24.853Z,6.67
2019-03-05T00:25:01.216Z,6.68
2019-03-05T00:30:39.310Z,6.64
2019-03-05T00:42:11.227Z,6.53
2019-03-05T00:47:46.013Z,6.51
2019-03-05T00:53:18.222Z,6.52
2019-03-05T00:58:29.883Z,6.49
2019-03-05T01:04:18.660Z,6.48
2019-03-05T01:09:24.442Z,6.50
2019-03-05T01:14:25.984Z,6.53
2019-03-05T01:19:27.593Z,6.45
2019-03-05T01:24:29.227Z,6.46
2019-03-05T01:29:30.901Z,6.52
2019-03-05T01:34:37.616Z,6.55
2019-03-05T01:39:44.309Z,6.63
2019-03-05T01:44:45.870Z,6.71
2019-03-05T01:49:47.521Z,6.73
2019-03-05T01:54:49.126Z,6.78
2019-03-05T01:59:50.705Z,6.80
2019-03-05T02:04:52.281Z,6.82
2019-03-05T02:09:53.867Z,6.83
2019-03-05T02:14:55.632Z,6.81
2019-03-05T02:19:57.228Z,6.82
2019-03-05T02:25:20.646Z,6.83
2019-03-05T02:30:36.370Z,6.85
2019-03-05T02:35:51.155Z,6.91
2019-03-05T02:41:12.054Z,6.95
2019-03-05T02:46:49.353Z,6.96
2019-03-05T02:52:00.638Z,6.97
2019-03-05T02:57:08.342Z,7.01
2019-03-05T03:02:32.661Z,7.02
2019-03-05T03:07:34.218Z,7.01
2019-03-05T03:12:35.800Z,6.99
2019-03-05T03:17:37.457Z,6.99
2019-03-05T03:22:39.027Z,6.97
2019-03-05T03:27:40.584Z,6.94
2019-03-05T03:32:42.181Z,6.93
2019-03-05T03:37:43.820Z,6.91
2019-03-05T03:42:45.514Z,6.90
2019-03-05T03:47:47.217Z,6.87
2019-03-05T03:52:48.788Z,6.83
2019-03-05T03:57:50.471Z,6.79
2019-03-05T04:02:52.960Z,6.79
2019-03-05T04:07:54.620Z,6.79
2019-03-05T04:12:56.291Z,6.76
2019-03-05T04:17:57.956Z,6.76
2019-03-05T04:22:59.635Z,6.76
2019-03-05T04:28:01.304Z,6.76
2019-03-05T04:33:02.965Z,6.77
2019-03-05T04:38:04.546Z,6.77
2019-03-05T04:43:06.138Z,6.74
2019-03-05T04:48:08.006Z,6.72
2019-03-05T04:53:09.616Z,6.75
2019-03-05T04:58:11.218Z,6.79
2019-03-05T05:03:12.813Z,6.78
2019-03-05T05:08:14.362Z,6.83
2019-03-05T05:13:16.051Z,6.85
2019-03-05T05:18:17.620Z,6.90
2019-03-05T05:23:19.177Z,6.91
2019-03-05T05:28:20.769Z,6.92
2019-03-05T05:33:22.475Z,6.92
2019-03-05T05:38:24.047Z,6.91
2019-03-05T05:43:27.951Z,6.89
2019-03-05T05:48:29.616Z,6.89
2019-03-05T05:53:31.199Z,6.87
2019-03-05T05:58:32.765Z,6.87
2019-03-05T06:03:34.347Z,6.87
2019-03-05T06:08:35.937Z,6.88
2019-03-05T06:13:37.530Z,6.92
2019-03-05T06:18:39.100Z,6.91
2019-03-05T06:23:40.655Z,6.89
2019-03-05T06:28:42.289Z,6.86
2019-03-05T06:33:43.893Z,6.84
2019-03-05T06:38:45.455Z,6.89
2019-03-05T06:43:47.055Z,6.96
2019-03-05T06:48:48.644Z,7.03
2019-03-05T06:53:50.260Z,7.15
2019-03-05T06:58:51.825Z,7.24
2019-03-05T07:03:53.427Z,7.39
2019-03-05T07:08:59.789Z,7.31
2019-03-05T07:14:02.985Z,7.16
2019-03-05T07:19:15.504Z,7.10
2019-03-05T07:24:43.190Z,7.10
2019-03-05T07:29:44.865Z,6.99
2019-03-05T07:34:47.485Z,7.01
2019-03-05T07:39:49.207Z,6.96
2019-03-05T07:44:50.809Z,6.94
2019-03-05T07:49:52.474Z,6.91
2019-03-05T07:54:54.067Z,6.87
2019-03-05T07:59:55.670Z,6.98
2019-03-05T08:04:57.402Z,7.22
2019-03-05T08:10:06.084Z,7.38
2019-03-05T08:15:21.239Z,7.44
2019-03-05T08:20:22.930Z,7.60
2019-03-05T08:25:24.524Z,7.73
2019-03-05T08:30:26.072Z,7.46
2019-03-05T08:35:27.616Z,7.40
2019-03-05T08:40:29.176Z,7.44
2019-03-05T08:45:30.974Z,7.54
2019-03-05T08:50:32.693Z,7.31
2019-03-05T08:55:34.590Z,7.16
2019-03-05T09:00:36.293Z,7.11
2019-03-05T09:05:37.946Z,7.21
2019-03-05T09:10:39.599Z,7.39
2019-03-05T09:15:41.166Z,7.63
2019-03-05T09:20:42.755Z,7.73
2019-03-05T09:25:44.450Z,7.90
2019-03-05T09:30:46.042Z,8.05
2019-03-05T09:35:47.715Z,7.92
2019-03-05T09:40:49.478Z,7.88
2019-03-05T09:45:51.119Z,7.97
2019-03-05T09:50:52.671Z,7.92
2019-03-05T09:55:55.026Z,7.83
2019-03-05T10:00:56.884Z,7.81
2019-03-05T10:05:58.460Z,8.08
2019-03-05T10:11:00.127Z,8.51
2019-03-05T10:16:01.816Z,8.68
2019-03-05T10:21:03.641Z,8.55
2019-03-05T10:26:05.305Z,8.65
2019-03-05T10:31:06.996Z,8.54
2019-03-05T10:36:08.658Z,8.55
2019-03-05T10:41:10.334Z,8.43
2019-03-05T10:46:12.033Z,8.51
2019-03-05T10:51:13.684Z,8.37
2019-03-05T10:56:15.437Z,8.29
2019-03-05T11:01:17.107Z,8.44
2019-03-05T11:06:18.825Z,8.38
2019-03-05T11:11:20.637Z,8.44
2019-03-05T11:16:30.364Z,8.47
2019-03-05T11:21:25.996Z,8.15
2019-03-05T11:26:27.666Z,7.86
2019-03-05T11:31:29.248Z,7.97
2019-03-05T11:36:30.996Z,8.25
2019-03-05T11:41:32.629Z,8.38
2019-03-05T11:46:34.417Z,8.62
2019-03-05T11:51:36.136Z,8.75
2019-03-05T11:56:37.694Z,8.43
2019-03-05T12:01:42.858Z,8.42
2019-03-05T12:06:44.497Z,8.42
2019-03-05T12:11:46.072Z,8.21
2019-03-05T12:16:47.849Z,8.14
2019-03-05T12:21:49.756Z,8.25
2019-03-05T12:26:51.691Z,8.37
2019-03-05T12:31:53.610Z,8.39
2019-03-05T12:36:55.486Z,8.49
2019-03-05T12:41:57.298Z,8.53
2019-03-05T12:47:02.031Z,8.22
2019-03-05T12:52:03.727Z,8.39
2019-03-05T12:57:05.416Z,8.37
2019-03-05T13:02:07.187Z,8.22
2019-03-05T13:07:08.757Z,7.93
2019-03-05T13:12:10.442Z,7.98
2019-03-05T13:17:12.119Z,7.95
2019-03-05T13:22:13.689Z,7.70
2019-03-05T13:27:18.869Z,7.00
2019-03-05T13:32:20.824Z,7.57
2019-03-05T13:37:24.884Z,12.03
2019-03-05T13:42:29.042Z,13.62
2019-03-05T13:47:29.658Z,13.71
2019-03-05T13:53:14.536Z,14.96
2019-03-05T13:58:51.935Z,13.87
2019-03-05T14:03:58.131Z,11.39
2019-03-05T14:09:15.535Z,13.33
2019-03-05T14:14:21.667Z,13.20
2019-03-05T14:19:23.333Z,10.93
2019-03-05T14:24:25.137Z,11.92
2019-03-05T14:29:29.266Z,13.63
2019-03-05T14:34:30.435Z,11.98
2019-03-05T14:39:33.727Z,10.70
2019-03-05T14:44:40.124Z,10.99
2019-03-05T14:49:39.990Z,10.36
2019-03-05T14:54:41.655Z,9.54
2019-03-05T14:59:43.332Z,9.39
2019-03-05T15:04:44.994Z,9.14
2019-03-05T15:09:46.740Z,9.11
2019-03-05T15:14:48.280Z,9.34
2019-03-05T15:19:50.017Z,9.14
2019-03-05T15:24:51.747Z,9.23
2019-03-05T15:29:53.295Z,9.26
2019-03-05T15:34:55.235Z,8.85
2019-03-05T15:39:59.260Z,8.47
2019-03-05T15:45:02.707Z,8.37
2019-03-05T15:50:10.411Z,8.32
2019-03-05T15:55:12.501Z,8.08
2019-03-05T16:00:16.927Z,7.96
2019-03-05T16:05:20.762Z,8.36
2019-03-05T16:10:22.374Z,9.09
2019-03-05T16:15:24.035Z,8.89
2019-03-05T16:20:26.094Z,8.45
2019-03-05T16:25:28.892Z,8.15
2019-03-05T16:30:49.157Z,7.87
2019-03-05T16:36:16.686Z,7.71
2019-03-05T16:41:29.724Z,7.62
2019-03-05T16:46:51.242Z,7.53
2019-03-05T16:52:10.415Z,7.49
2019-03-05T16:57:31.785Z,7.36
2019-03-05T17:02:55.612Z,7.32
2019-03-05T17:08:16.783Z,7.30
2019-03-05T17:13:18.835Z,7.26
2019-03-05T17:18:20.589Z,7.12
2019-03-05T17:23:22.297Z,7.10
2019-03-05T17:28:23.923Z,6.97
2019-03-05T17:33:25.664Z,6.83
2019-03-05T17:38:27.534Z,6.72
2019-03-05T17:43:29.770Z,6.67
2019-03-05T17:48:31.551Z,6.63
2019-03-05T17:53:33.155Z,6.57
2019-03-05T17:58:34.748Z,6.52
2019-03-05T18:03:36.502Z,6.50
2019-03-05T18:08:39.515Z,6.46
2019-03-05T18:13:41.288Z,6.45
2019-03-05T18:18:43.193Z,6.40
2019-03-05T18:23:45.099Z,6.33
2019-03-05T18:28:47.283Z,6.26
2019-03-05T18:33:49.419Z,6.20
2019-03-05T18:38:51.616Z,6.28
2019-03-05T18:43:53.330Z,6.36
2019-03-05T18:48:54.944Z,6.34
2019-03-05T18:53:56.764Z,6.33
2019-03-05T18:58:58.564Z,6.31
2019-03-05T19:04:00.313Z,6.26
2019-03-05T19:09:03.454Z,6.19
2019-03-05T19:14:05.266Z,6.12
2019-03-05T19:19:07.004Z,6.13
2019-03-05T19:24:08.691Z,6.15
2019-03-05T19:29:10.690Z,6.17
2019-03-05T19:34:12.456Z,6.21
2019-03-05T19:39:14.488Z,6.23
2019-03-05T19:44:16.544Z,6.25
2019-03-05T19:49:18.309Z,6.24
2019-03-05T19:54:20.041Z,6.24
2019-03-05T19:59:21.901Z,6.23
2019-03-05T20:04:23.693Z,6.18
2019-03-05T20:09:25.443Z,6.16
2019-03-05T20:14:27.223Z,6.13
2019-03-05T20:19:28.833Z,6.09
2019-03-05T20:24:30.503Z,6.07
2019-03-05T20:29:32.111Z,6.05
2019-03-05T20:34:34.034Z,5.98
2019-03-05T20:39:35.927Z,5.89
2019-03-05T20:44:37.680Z,5.84
2019-03-05T20:49:39.756Z,5.84
2019-03-05T20:54:44.403Z,5.89
2019-03-05T20:59:46.086Z,5.86
2019-03-05T21:04:47.801Z,5.82
2019-03-05T21:09:49.412Z,5.79
2019-03-05T21:14:50.975Z,5.76
2019-03-05T21:19:52.900Z,5.73
2019-03-05T21:24:54.473Z,5.67
2019-03-05T21:29:56.132Z,5.65
2019-03-05T21:34:57.723Z,5.59
2019-03-05T21:39:59.289Z,5.57
2019-03-05T21:45:00.858Z,5.54
2019-03-05T21:50:03.546Z,5.55
2019-03-05T21:55:06.056Z,5.53
2019-03-05T22:00:13.875Z,5.52
2019-03-05T22:05:15.674Z,5.52
2019-03-05T22:10:18.023Z,5.53
2019-03-05T22:15:19.722Z,5.51
2019-03-05T22:20:21.884Z,5.50
2019-03-05T22:25:23.707Z,5.47
2019-03-05T22:30:26.150Z,5.44
2019-03-05T22:35:27.864Z,5.34
2019-03-05T22:40:29.435Z,5.27
2019-03-05T22:45:31.262Z,5.25
2019-03-05T22:50:32.835Z,5.18
2019-03-05T22:55:34.425Z,5.18
2019-03-05T23:00:57.705Z,5.18
2019-03-05T23:06:00.278Z,5.18
2019-03-05T23:11:01.843Z,5.12
2019-03-05T23:16:03.812Z,5.12
2019-03-05T23:21:05.479Z,5.07
2019-03-05T23:26:07.150Z,5.03
2019-03-05T23:31:08.927Z,4.99
2019-03-05T23:36:10.620Z,4.98
2019-03-05T23:41:13.114Z,4.89
2019-03-05T23:46:14.809Z,4.86
2019-03-05T23:51:16.674Z,4.83
2019-03-05T23:56:18.449Z,4.82
